Time;durP1;ratioP1;P1;durP2;ratioP2;P2;SDS_P1;SDS_P2;PMS_P1;PMS_P2;Temp;Humidity;BMP_temperature;BMP_pressure;BME280_temperature;BME280_humidity;BME280_pressure;Samples;Min_cycle;Max_cycle;Signal;HPM_P1;HPM_P2
2022/03/28 00:00:11;;;;;;;6.73;3.30;;;;;;;20.44;43.97;102643.97;5053271;28;20025;-70
2022/03/28 00:02:40;;;;;;;6.55;3.05;;;;;;;20.42;44.06;102644.06;5052139;28;20274;-70
2022/03/28 00:05:07;;;;;;;9.73;3.70;;;;;;;20.41;44.16;102642.38;5053145;28;20024;-70
2022/03/28 00:07:32;;;;;;;6.93;3.03;;;;;;;20.40;44.24;102645.97;5052221;28;20070;-70
2022/03/28 00:09:58;;;;;;;7.45;3.38;;;;;;;20.38;44.00;102645.22;5052867;28;20021;-70
2022/03/28 00:12:24;;;;;;;6.32;2.83;;;;;;;20.35;44.03;102634.81;5053003;28;20032;-70
2022/03/28 00:14:49;;;;;;;6.68;3.05;;;;;;;20.34;44.05;102626.97;5051853;28;20044;-71
2022/03/28 00:17:14;;;;;;;6.83;3.07;;;;;;;20.30;44.09;102619.22;5052940;28;20514;-71
2022/03/28 00:19:39;;;;;;;7.15;3.70;;;;;;;20.32;44.04;102621.78;5052504;28;20469;-71
2022/03/28 00:22:05;;;;;;;6.63;3.10;;;;;;;20.30;43.97;102616.56;5052081;28;20032;-71
2022/03/28 00:24:30;;;;;;;7.25;3.33;;;;;;;20.28;44.10;102614.97;5052903;28;20290;-71
2022/03/28 00:26:55;;;;;;;7.15;3.20;;;;;;;20.28;44.14;102617.59;5052613;28;20021;-71
2022/03/28 00:29:21;;;;;;;6.82;3.28;;;;;;;20.26;43.95;102608.91;5052141;28;20052;-70
2022/03/28 00:31:47;;;;;;;6.28;2.90;;;;;;;20.25;44.01;102604.56;5052551;28;20032;-71
2022/03/28 00:34:12;;;;;;;5.80;3.13;;;;;;;20.27;43.66;102607.97;5052711;28;20021;-70
2022/03/28 00:36:38;;;;;;;6.78;3.03;;;;;;;20.24;43.88;102603.72;5051944;28;20064;-71
2022/03/28 00:39:03;;;;;;;7.65;3.20;;;;;;;20.22;43.78;102599.44;5052822;28;20431;-70
2022/03/28 00:41:28;;;;;;;7.10;3.50;;;;;;;20.21;43.94;102598.63;5052756;28;20028;-71
2022/03/28 00:43:58;;;;;;;6.43;3.23;;;;;;;20.18;43.85;102590.88;5051626;28;20381;-71
2022/03/28 00:46:23;;;;;;;7.32;3.50;;;;;;;20.20;44.05;102583.69;5052558;28;20308;-70
2022/03/28 00:48:50;;;;;;;10.35;3.50;;;;;;;20.19;43.85;102587.28;5052302;28;20057;-71
2022/03/28 00:51:17;;;;;;;8.20;3.22;;;;;;;20.17;43.86;102585.66;5052092;28;20028;-71
2022/03/28 00:53:44;;;;;;;6.88;3.60;;;;;;;20.14;43.84;102584.09;5052396;28;20029;-70
2022/03/28 00:56:11;;;;;;;6.43;3.03;;;;;;;20.14;43.75;102584.09;5052623;28;20029;-70
2022/03/28 00:58:36;;;;;;;6.28;3.15;;;;;;;20.14;43.98;102580.56;5051520;28;20025;-71
2022/03/28 01:01:01;;;;;;;7.25;3.60;;;;;;;20.11;43.83;102579.81;5052442;28;20503;-70
2022/03/28 01:03:27;;;;;;;8.15;3.63;;;;;;;20.08;43.87;102566.78;5052420;28;20029;-70
2022/03/28 01:05:52;;;;;;;7.15;3.25;;;;;;;20.10;43.82;102569.31;5051500;28;20148;-70
2022/03/28 01:08:17;;;;;;;6.60;3.40;;;;;;;20.08;43.79;102566.78;5052590;28;20468;-70
2022/03/28 01:10:47;;;;;;;8.05;3.13;;;;;;;20.07;43.72;102564.22;5051365;28;20025;-70
2022/03/28 01:13:13;;;;;;;7.25;3.50;;;;;;;20.06;43.44;102566.03;5052100;28;20560;-69
2022/03/28 01:15:38;;;;;;;8.05;3.72;;;;;;;20.06;43.83;102555.44;5052180;28;20057;-70
2022/03/28 01:18:07;;;;;;;9.07;3.50;;;;;;;20.05;43.84;102558.19;5051616;28;20072;-70
2022/03/28 01:20:36;;;;;;;7.85;3.55;;;;;;;20.05;43.72;102558.19;5052470;28;20273;-69
2022/03/28 01:23:01;;;;;;;7.00;3.55;;;;;;;20.02;43.91;102553.06;5053319;28;20032;-69
2022/03/28 01:25:29;;;;;;;8.82;3.72;;;;;;;20.02;43.67;102555.72;5055398;28;20025;-70
2022/03/28 01:27:55;;;;;;;6.55;3.20;;;;;;;19.99;43.90;102540.03;5055832;28;20104;-70
2022/03/28 01:30:22;;;;;;;6.22;3.08;;;;;;;19.96;43.72;102541.06;5056017;28;20033;-71
2022/03/28 01:32:48;;;;;;;7.38;3.53;;;;;;;19.98;43.94;102543.63;5054857;28;20025;-70
2022/03/28 01:35:37;;;;;;;8.65;3.42;;;;;;;19.96;43.59;102537.59;5056015;28;20044;-70
2022/03/28 01:38:05;;;;;;;7.38;2.97;;;;;;;19.93;43.56;102531.53;5055958;28;20053;-70
2022/03/28 01:40:32;;;;;;;8.88;3.92;;;;;;;19.94;43.70;102527.94;5054818;28;20025;-70
2022/03/28 01:42:57;;;;;;;8.57;3.42;;;;;;;19.91;43.63;102527.28;5055153;28;20407;-70
2022/03/28 01:45:23;;;;;;;7.35;3.33;;;;;;;19.92;43.91;102521.91;5055948;28;20078;-70
2022/03/28 01:47:48;;;;;;;8.35;3.22;;;;;;;19.92;43.56;102529.84;5054861;28;20017;-70
2022/03/28 01:50:14;;;;;;;6.22;3.13;;;;;;;19.91;43.70;102524.63;5055747;28;20446;-70
2022/03/28 01:52:40;;;;;;;7.20;3.10;;;;;;;19.89;43.39;102532.66;5055649;28;20029;-70
2022/03/28 01:55:07;;;;;;;7.38;3.60;;;;;;;19.87;43.66;102536.38;5054996;28;20025;-71
2022/03/28 01:57:32;;;;;;;8.27;3.30;;;;;;;19.86;43.55;102530.22;5055472;28;20028;-70
2022/03/28 01:59:57;;;;;;;7.65;3.53;;;;;;;19.85;43.57;102531.19;5055061;28;20029;-70
2022/03/28 02:02:23;;;;;;;7.50;3.42;;;;;;;19.85;43.70;102527.66;5055792;28;20020;-70
2022/03/28 02:04:48;;;;;;;7.05;3.22;;;;;;;19.84;43.74;102524.19;5055018;28;20483;-70
2022/03/28 02:07:13;;;;;;;6.73;3.57;;;;;;;19.81;43.86;102524.38;5054617;28;20124;-70
2022/03/28 02:09:38;;;;;;;7.33;3.50;;;;;;;19.81;43.67;102513.78;5055109;28;20638;-70
2022/03/28 02:12:04;;;;;;;7.28;3.28;;;;;;;19.80;43.73;102516.53;5055294;28;20385;-70
2022/03/28 02:14:29;;;;;;;5.97;2.72;;;;;;;19.80;43.75;102513.88;5054430;28;20049;-70
2022/03/28 02:16:55;;;;;;;7.20;2.92;;;;;;;19.81;43.63;102516.44;5055189;28;20151;-70
2022/03/28 02:19:20;;;;;;;6.32;3.10;;;;;;;19.79;43.59;102515.69;5055460;28;20479;-70
2022/03/28 02:21:48;;;;;;;7.10;3.55;;;;;;;19.79;43.47;102512.16;5054156;28;20067;-70
2022/03/28 02:24:13;;;;;;;8.35;3.28;;;;;;;19.77;43.49;102499.03;5055248;28;20033;-70
2022/03/28 02:26:38;;;;;;;7.05;3.00;;;;;;;19.76;43.23;102502.63;5054676;28;20103;-70
2022/03/28 02:29:03;;;;;;;6.77;3.03;;;;;;;19.74;43.39;102497.41;5054145;28;20048;-70
2022/03/28 02:31:29;;;;;;;4.77;2.63;;;;;;;19.75;43.62;102500.91;5055203;28;20278;-71
2022/03/28 02:33:54;;;;;;;7.80;3.60;;;;;;;19.71;43.38;102491.44;5054047;28;20621;-71
2022/03/28 02:36:19;;;;;;;8.73;3.20;;;;;;;19.70;43.50;102495.06;5053588;28;20029;-71
2022/03/28 02:38:45;;;;;;;5.40;2.63;;;;;;;19.68;43.26;102492.50;5054615;28;20637;-70
2022/03/28 02:41:10;;;;;;;7.82;3.10;;;;;;;19.69;43.31;102490.69;5054666;28;20269;-70
2022/03/28 02:43:35;;;;;;;6.65;3.30;;;;;;;19.68;43.39;102481.09;5053752;28;20025;-71
2022/03/28 02:46:01;;;;;;;7.03;2.80;;;;;;;19.64;43.52;102477.75;5054794;28;20086;-71
2022/03/28 02:48:26;;;;;;;9.03;3.57;;;;;;;19.66;43.41;102480.31;5054689;28;20324;-70
2022/03/28 02:50:52;;;;;;;7.70;2.90;;;;;;;19.63;43.83;102473.44;5053750;28;20269;-70
2022/03/28 02:53:17;;;;;;;7.47;3.35;;;;;;;19.64;43.48;102474.28;5054677;28;20029;-70
2022/03/28 02:55:42;;;;;;;7.05;3.13;;;;;;;19.63;43.43;102476.06;5054411;28;20029;-71
2022/03/28 02:58:08;;;;;;;9.20;2.88;;;;;;;19.61;43.40;102472.66;5053631;28;20025;-71
2022/03/28 03:00:33;;;;;;;5.78;2.72;;;;;;;19.61;43.47;102467.38;5054512;28;20025;-71
2022/03/28 03:02:59;;;;;;;7.25;2.90;;;;;;;19.60;43.47;102465.69;5054527;28;20384;-70
2022/03/28 03:05:24;;;;;;;7.50;3.03;;;;;;;19.60;43.41;102467.47;5053684;28;20025;-71
2022/03/28 03:07:49;;;;;;;5.70;2.60;;;;;;;19.57;43.69;102460.59;5054087;28;20369;-70
2022/03/28 03:10:15;;;;;;;6.55;3.00;;;;;;;19.57;43.32;102455.28;5053650;28;20109;-70
2022/03/28 03:12:41;;;;;;;6.95;3.20;;;;;;;19.55;43.67;102460.69;5053396;28;20036;-69
2022/03/28 03:15:06;;;;;;;7.65;3.17;;;;;;;19.56;43.58;102459.72;5054285;28;20096;-71
2022/03/28 03:17:32;;;;;;;7.70;2.83;;;;;;;19.54;43.34;102450.19;5053398;28;20021;-71
2022/03/28 03:20:00;;;;;;;7.65;2.83;;;;;;;19.52;43.63;102445.00;5053883;28;20098;-70
2022/03/28 03:22:26;;;;;;;6.53;2.90;;;;;;;19.53;43.46;102451.97;5054034;28;20032;-70
2022/03/28 03:24:51;;;;;;;6.15;2.72;;;;;;;19.52;43.41;102450.28;5052807;28;20052;-71
2022/03/28 03:27:17;;;;;;;7.23;2.70;;;;;;;19.51;43.54;102453.88;5053731;28;20537;-71
2022/03/28 03:29:42;;;;;;;6.55;3.00;;;;;;;19.52;43.46;102455.56;5053781;28;20764;-70
2022/03/28 03:32:08;;;;;;;6.85;2.88;;;;;;;19.50;43.50;102449.53;5052991;28;20017;-70
2022/03/28 03:34:34;;;;;;;7.43;3.42;;;;;;;19.50;43.09;102446.03;5053537;28;20021;-70
2022/03/28 03:37:00;;;;;;;7.32;2.92;;;;;;;19.49;43.61;102441.69;5053695;28;20388;-70
2022/03/28 03:39:25;;;;;;;7.25;3.15;;;;;;;19.48;43.41;102437.34;5052874;28;20388;-70
2022/03/28 03:41:52;;;;;;;6.93;3.05;;;;;;;19.47;43.46;102436.50;5053203;28;20151;-70
2022/03/28 03:44:17;;;;;;;6.65;3.20;;;;;;;19.45;43.56;102438.38;5053675;28;20028;-70
2022/03/28 03:46:42;;;;;;;8.02;3.05;;;;;;;19.45;43.51;102433.09;5052225;28;20044;-70
2022/03/28 03:49:08;;;;;;;7.35;3.20;;;;;;;19.42;43.44;102424.50;5053530;28;20070;-70
2022/03/28 03:51:34;;;;;;;7.25;3.05;;;;;;;19.44;43.48;102430.53;5053133;28;20025;-70
2022/03/28 03:54:02;;;;;;;6.68;3.22;;;;;;;19.45;43.38;102426.97;5052605;28;20070;-70
2022/03/28 03:56:28;;;;;;;6.60;2.80;;;;;;;19.44;43.51;102426.13;5053408;28;20561;-70
2022/03/28 03:58:54;;;;;;;7.05;2.83;;;;;;;19.43;43.54;102415.63;5053130;28;20533;-70
2022/03/28 04:01:21;;;;;;;7.10;3.20;;;;;;;19.42;43.46;102414.78;5052671;28;20021;-69
2022/03/28 04:03:46;;;;;;;6.82;2.97;;;;;;;19.42;43.31;102416.56;5052881;28;20107;-70
2022/03/28 04:06:14;;;;;;;7.22;3.42;;;;;;;19.39;43.48;102418.47;5053125;28;20116;-70
2022/03/28 04:08:40;;;;;;;6.70;3.05;;;;;;;19.39;43.31;102415.81;5052093;28;20461;-70
2022/03/28 04:11:06;;;;;;;7.15;2.75;;;;;;;19.39;43.45;102410.53;5052928;28;20492;-70
2022/03/28 04:13:33;;;;;;;9.52;3.28;;;;;;;19.39;43.32;102414.97;5052807;28;20073;-70
2022/03/28 04:15:59;;;;;;;5.22;2.53;;;;;;;19.38;43.33;102408.00;5052843;28;20469;-70
2022/03/28 04:18:25;;;;;;;9.27;3.20;;;;;;;19.37;43.46;102401.84;5053006;28;20033;-70
2022/03/28 04:20:51;;;;;;;7.07;2.70;;;;;;;19.37;43.23;102408.94;5051997;28;20021;-70
2022/03/28 04:23:16;;;;;;;8.07;3.20;;;;;;;19.36;43.69;102404.59;5052857;28;20487;-71
2022/03/28 04:25:42;;;;;;;8.30;3.13;;;;;;;19.26;43.30;102396.38;5052545;28;20450;-71
2022/03/28 04:28:08;;;;;;;6.97;2.90;;;;;;;19.34;43.15;102404.69;5052245;28;20282;-70
2022/03/28 04:30:33;;;;;;;9.55;3.78;;;;;;;19.35;43.23;102406.38;5052766;28;20032;-70
2022/03/28 04:32:58;;;;;;;8.05;3.05;;;;;;;19.33;43.15;102410.91;5052890;28;20025;-70
2022/03/28 04:35:23;;;;;;;7.20;2.53;;;;;;;19.34;43.37;102414.41;5052086;28;20021;-71
2022/03/28 04:37:49;;;;;;;7.97;3.28;;;;;;;19.31;43.04;102401.38;5052339;28;20273;-71
2022/03/28 04:40:18;;;;;;;8.43;3.00;;;;;;;19.30;43.39;102411.09;5052968;28;20382;-70
2022/03/28 04:42:45;;;;;;;8.80;3.00;;;;;;;19.31;43.87;102404.88;5051690;28;20035;-71
2022/03/28 04:45:11;;;;;;;7.35;2.75;;;;;;;19.35;43.99;102402.88;5052807;28;20029;-70
2022/03/28 04:47:39;;;;;;;9.25;3.58;;;;;;;19.37;43.92;102403.63;5052355;28;20074;-70
2022/03/28 04:50:05;;;;;;;6.75;2.90;;;;;;;19.41;44.03;102402.50;5051893;28;20052;-70
2022/03/28 04:52:31;;;;;;;7.65;3.17;;;;;;;19.43;43.89;102400.63;5052434;28;20551;-71
2022/03/28 04:54:56;;;;;;;8.32;3.05;;;;;;;19.47;43.77;102409.19;5052406;28;20124;-71
2022/03/28 04:57:24;;;;;;;6.57;2.90;;;;;;;19.48;43.63;102403.81;5051709;28;20025;-70
2022/03/28 04:59:49;;;;;;;9.18;3.30;;;;;;;19.49;43.62;102400.25;5056601;28;20029;-71
2022/03/28 05:02:15;;;;;;;6.65;2.65;;;;;;;19.51;43.73;102405.44;5056755;28;20021;-70
2022/03/28 05:04:41;;;;;;;7.20;2.80;;;;;;;19.51;43.61;102405.44;5055566;28;20365;-71
2022/03/28 05:07:06;;;;;;;8.43;3.25;;;;;;;19.52;43.52;102410.63;5056421;28;20025;-71
2022/03/28 05:09:32;;;;;;;10.73;3.67;;;;;;;19.52;43.57;102415.06;5056656;28;20368;-70
2022/03/28 05:11:57;;;;;;;8.70;3.38;;;;;;;19.54;43.10;102413.16;5055408;28;20025;-70
2022/03/28 05:14:23;;;;;;;6.80;3.00;;;;;;;19.54;42.62;102407.88;5056354;28;20098;-70
2022/03/28 05:16:49;;;;;;;7.10;2.92;;;;;;;19.55;42.98;102399.84;5056108;28;20025;-70
2022/03/28 05:19:14;;;;;;;6.88;3.10;;;;;;;19.56;43.12;102398.88;5055973;28;20029;-70
2022/03/28 05:21:39;;;;;;;7.95;2.90;;;;;;;19.62;43.33;102402.13;5055836;28;20098;-70
2022/03/28 05:24:05;;;;;;;7.00;2.63;;;;;;;19.65;43.32;102404.56;5055604;28;20043;-70
2022/03/28 05:26:30;;;;;;;7.82;3.00;;;;;;;19.67;43.24;102400.88;5056319;28;20064;-70
2022/03/28 05:28:56;;;;;;;7.10;2.83;;;;;;;19.70;43.65;102403.31;5055701;28;20029;-70
2022/03/28 05:31:21;;;;;;;7.13;2.87;;;;;;;19.74;43.76;102399.53;5055571;28;20267;-69
2022/03/28 05:33:49;;;;;;;7.97;3.40;;;;;;;19.79;43.85;102403.69;5055835;28;20297;-70
2022/03/28 05:36:14;;;;;;;5.63;2.40;;;;;;;19.82;43.59;102400.88;5055887;28;20372;-70
2022/03/28 05:38:40;;;;;;;5.57;2.40;;;;;;;19.86;43.62;102402.38;5054982;28;20017;-70
2022/03/28 05:41:06;;;;;;;9.35;3.17;;;;;;;19.89;44.01;102399.53;5056015;28;20047;-70
2022/03/28 05:43:34;;;;;;;7.13;2.58;;;;;;;19.90;44.09;102398.56;5055734;28;20441;-69
2022/03/28 05:45:59;;;;;;;6.05;2.50;;;;;;;19.90;43.99;102396.78;5055092;28;20029;-71
2022/03/28 05:48:27;;;;;;;4.78;2.13;;;;;;;19.92;44.04;102386.94;5056139;28;20032;-70
2022/03/28 05:50:53;;;;;;;7.40;2.55;;;;;;;19.95;43.89;102393.84;5055251;28;20415;-70
2022/03/28 05:53:19;;;;;;;7.27;2.93;;;;;;;19.97;43.99;102384.00;5054984;28;20162;-70
2022/03/28 05:55:44;;;;;;;8.07;2.63;;;;;;;20.00;44.16;102381.16;5055584;28;20282;-70
2022/03/28 05:58:10;;;;;;;6.97;2.75;;;;;;;20.01;44.30;102374.06;5055783;28;20039;-70
2022/03/28 06:00:36;;;;;;;6.10;2.28;;;;;;;20.02;44.13;102375.78;5054695;28;20071;-70
2022/03/28 06:03:04;;;;;;;7.20;2.67;;;;;;;20.03;44.11;102373.03;5055418;28;20031;-70
2022/03/28 06:05:33;;;;;;;5.15;2.10;;;;;;;20.04;44.15;102379.16;5055396;28;20109;-70
2022/03/28 06:07:59;;;;;;;6.45;2.47;;;;;;;20.05;44.11;102373.78;5055018;28;20017;-70
2022/03/28 06:10:25;;;;;;;6.57;2.13;;;;;;;20.08;44.30;102384.16;5055389;28;20024;-69
2022/03/28 06:12:51;;;;;;;5.35;2.30;;;;;;;20.08;44.35;102378.03;5055038;28;20435;-69
2022/03/28 06:15:17;;;;;;;7.07;2.65;;;;;;;20.09;44.33;102379.69;5054787;28;20025;-69
2022/03/28 06:17:43;;;;;;;6.57;2.38;;;;;;;20.09;44.45;102375.28;5055087;28;20029;-70
2022/03/28 06:20:09;;;;;;;7.65;2.67;;;;;;;20.12;44.21;102376.84;5054884;28;20443;-69
2022/03/28 06:22:35;;;;;;;6.60;2.63;;;;;;;20.14;44.40;102382.91;5055002;28;20060;-69
2022/03/28 06:25:01;;;;;;;7.38;2.47;;;;;;;20.14;44.10;102376.75;5055273;28;20064;-70
2022/03/28 06:27:26;;;;;;;6.40;2.47;;;;;;;20.15;44.32;102374.00;5054395;28;20499;-69
2022/03/28 06:29:52;;;;;;;5.45;2.28;;;;;;;20.19;44.22;102377.31;5054732;28;20108;-69
2022/03/28 06:32:17;;;;;;;7.57;2.33;;;;;;;20.20;44.24;102382.50;5054904;28;20021;-69
2022/03/28 06:34:42;;;;;;;7.68;2.80;;;;;;;20.22;42.94;102374.44;5053799;28;20036;-66
2022/03/28 06:37:08;;;;;;;6.90;2.67;;;;;;;20.22;43.48;102371.78;5054851;28;20029;-70
2022/03/28 06:39:34;;;;;;;8.30;2.72;;;;;;;20.27;43.65;102375.00;5054821;28;20056;-74
2022/03/28 06:42:00;;;;;;;7.10;2.63;;;;;;;20.30;43.52;102380.94;5054271;28;20029;-74
2022/03/28 06:44:25;;;;;;;9.05;2.42;;;;;;;20.37;43.58;102383.19;5054752;28;20361;-76
2022/03/28 06:46:50;;;;;;;8.20;2.60;;;;;;;20.39;43.54;102382.13;5054516;28;20472;-74
2022/03/28 06:49:15;;;;;;;6.50;2.50;;;;;;;20.40;43.80;102380.34;5053832;28;20776;-76
2022/03/28 06:51:41;;;;;;;8.05;2.67;;;;;;;20.38;43.66;102379.59;5054446;28;20017;-75
2022/03/28 06:54:08;;;;;;;8.43;2.42;;;;;;;20.37;43.93;102380.53;5054683;28;20123;-75
2022/03/28 06:56:34;;;;;;;7.38;2.67;;;;;;;20.31;44.11;102373.84;5053911;28;20100;-75
2022/03/28 06:59:00;;;;;;;7.07;2.42;;;;;;;20.29;44.35;102373.09;5054397;28;20040;-75
2022/03/28 07:01:25;;;;;;;6.03;2.30;;;;;;;20.31;44.40;102365.91;5054624;28;20033;-73
2022/03/28 07:03:50;;;;;;;5.72;2.13;;;;;;;20.30;44.45;102364.22;5053231;28;20032;-73
2022/03/28 07:06:15;;;;;;;6.03;2.38;;;;;;;20.33;44.56;102369.31;5054562;28;20044;-76
2022/03/28 07:08:41;;;;;;;5.87;2.10;;;;;;;20.33;44.44;102353.44;5054187;28;20632;-69
2022/03/28 07:11:06;;;;;;;7.23;2.40;;;;;;;20.37;44.63;102359.34;5053592;28;20277;-73
2022/03/28 07:13:31;;;;;;;10.23;2.60;;;;;;;20.38;44.72;102358.41;5054007;28;20286;-76
2022/03/28 07:15:57;;;;;;;9.32;3.10;;;;;;;20.39;44.72;102354.78;5053871;28;20468;-71
2022/03/28 07:18:22;;;;;;;8.10;2.50;;;;;;;20.42;43.46;102360.72;5053274;28;20041;-77
2022/03/28 07:20:48;;;;;;;7.70;2.70;;;;;;;20.45;44.22;102357.03;5053385;28;20151;-76
2022/03/28 07:23:13;;;;;;;8.80;2.65;;;;;;;20.47;44.46;102347.19;5054149;28;20044;-72
2022/03/28 07:25:39;;;;;;;9.98;2.47;;;;;;;20.50;45.07;102346.13;5059130;28;20036;-73
2022/03/28 07:28:12;;;;;;;8.60;2.38;;;;;;;20.55;45.10;102344.00;5057950;28;20025;-72
2022/03/28 07:30:39;;;;;;;8.65;2.85;;;;;;;20.62;44.94;102346.16;5056020;28;20029;-72
2022/03/28 07:33:06;;;;;;;9.30;3.15;;;;;;;20.77;45.06;102351.38;5057358;28;20027;-76
2022/03/28 07:35:32;;;;;;;8.75;2.72;;;;;;;20.88;44.65;102343.53;5057358;28;20028;-68
2022/03/28 07:37:59;;;;;;;8.40;2.90;;;;;;;20.92;43.99;102336.19;5054461;28;20025;-76
2022/03/28 07:40:25;;;;;;;8.27;2.75;;;;;;;21.01;44.26;102332.91;5056650;28;20037;-77
2022/03/28 07:42:51;;;;;;;6.80;2.80;;;;;;;21.07;44.14;102321.88;5056146;28;20492;-73
2022/03/28 07:45:17;;;;;;;6.50;2.58;;;;;;;21.12;44.23;102322.41;5054836;28;20032;-71
2022/03/28 07:47:42;;;;;;;9.13;3.20;;;;;;;21.16;43.95;102318.59;5056576;28;20053;-74
2022/03/28 07:50:09;;;;;;;8.02;2.95;;;;;;;21.20;43.76;102306.81;5057333;28;20021;-68
2022/03/28 07:52:34;;;;;;;7.25;2.40;;;;;;;21.23;43.71;102313.69;5055045;28;20025;-66
2022/03/28 07:55:00;;;;;;;6.70;3.20;;;;;;;21.24;43.80;102325.13;5054243;28;20120;-70
2022/03/28 07:57:26;;;;;;;7.18;2.65;;;;;;;21.20;43.68;102322.72;5054066;28;20395;-75
2022/03/28 07:59:51;;;;;;;9.00;2.67;;;;;;;21.18;43.93;102319.31;5056965;28;20045;-70
2022/03/28 08:02:17;;;;;;;7.07;2.67;;;;;;;21.18;44.02;102311.34;5056483;28;20480;-73
2022/03/28 08:04:43;;;;;;;8.10;3.05;;;;;;;21.22;44.08;102319.09;5054231;28;20079;-78
2022/03/28 08:07:10;;;;;;;12.57;3.03;;;;;;;21.22;43.93;102319.97;5053319;28;20431;-79
2022/03/28 08:09:36;;;;;;;7.50;2.80;;;;;;;21.24;43.86;102318.03;5055154;28;20024;-67
2022/03/28 08:12:02;;;;;;;9.15;3.03;;;;;;;21.24;44.17;102319.81;5056427;28;20028;-72
2022/03/28 08:14:28;;;;;;;11.50;3.00;;;;;;;21.24;43.91;102310.09;5053389;28;20145;-78
2022/03/28 08:16:53;;;;;;;7.20;3.22;;;;;;;21.22;43.92;102304.06;5053358;28;20492;-68
2022/03/28 08:19:19;;;;;;;8.85;3.35;;;;;;;21.16;44.37;102302.69;5053361;28;20020;-67
2022/03/28 08:21:44;;;;;;;9.05;3.40;;;;;;;21.16;44.23;102301.84;5052318;28;20496;-72
2022/03/28 08:24:10;;;;;;;7.20;3.15;;;;;;;21.12;44.43;102301.19;5053171;28;20406;-70
2022/03/28 08:26:35;;;;;;;6.97;3.17;;;;;;;21.12;44.37;102295.88;5052836;28;20021;-73
2022/03/28 08:29:01;;;;;;;8.48;3.30;;;;;;;21.12;44.38;102295.88;5052706;28;20093;-74
2022/03/28 08:31:28;;;;;;;8.30;3.30;;;;;;;21.12;44.07;102287.94;5053364;28;20028;-73
2022/03/28 08:33:53;;;;;;;7.60;3.40;;;;;;;21.14;44.37;102287.81;5052214;28;20399;-75
2022/03/28 08:36:19;;;;;;;7.47;2.83;;;;;;;21.15;44.38;102286.88;5053330;28;20035;-72
2022/03/28 08:38:44;;;;;;;9.30;3.78;;;;;;;21.16;44.26;102283.28;5052752;28;20578;-78
2022/03/28 08:41:14;;;;;;;9.97;3.70;;;;;;;21.15;44.33;102285.06;5052186;28;20479;-78
2022/03/28 08:43:42;;;;;;;9.32;3.38;;;;;;;21.12;43.45;102284.44;5052503;28;20274;-68
2022/03/28 08:46:09;;;;;;;8.95;3.55;;;;;;;21.10;44.11;102289.03;5053625;28;20439;-78
2022/03/28 08:48:38;;;;;;;10.43;3.80;;;;;;;21.10;44.17;102283.72;5056629;28;20028;-69
2022/03/28 08:51:03;;;;;;;8.20;3.50;;;;;;;21.12;44.34;102282.63;5055983;28;20032;-68
2022/03/28 08:53:29;;;;;;;10.23;3.65;;;;;;;21.15;44.02;102281.56;5054869;28;20025;-67
2022/03/28 08:55:54;;;;;;;8.77;3.55;;;;;;;21.17;44.36;102274.34;5055772;28;20033;-68
2022/03/28 08:58:19;;;;;;;9.40;3.88;;;;;;;21.17;44.27;102282.31;5056257;28;20036;-71
2022/03/28 09:00:45;;;;;;;9.68;3.60;;;;;;;21.18;44.31;102273.41;5054942;28;20029;-71
2022/03/28 09:03:10;;;;;;;8.32;3.70;;;;;;;21.22;44.39;102279.31;5055040;28;20052;-74
2022/03/28 09:05:38;;;;;;;9.27;3.88;;;;;;;21.22;44.17;102277.53;5057719;28;20029;-79
2022/03/28 09:08:06;;;;;;;8.20;3.22;;;;;;;21.23;44.25;102273.09;5057755;28;20535;-74
2022/03/28 09:10:33;;;;;;;13.52;4.20;;;;;;;21.22;44.33;102272.25;5055229;28;20033;-68
2022/03/28 09:13:11;;;;;;;9.00;3.42;;;;;;;21.24;44.38;102280.06;5055179;28;20461;-77
2022/03/28 09:15:56;;;;;;;9.02;3.50;;;;;;;21.25;44.30;102274.63;5054727;28;20083;-70
2022/03/28 09:18:22;;;;;;;10.32;3.80;;;;;;;21.25;44.27;102269.34;5053909;28;20029;-78
2022/03/28 09:20:53;;;;;;;10.23;3.80;;;;;;;21.24;44.71;102275.63;5052537;28;20036;-74
2022/03/28 09:23:33;;;;;;;8.70;3.40;;;;;;;21.23;44.65;102271.25;5054224;28;20029;-81
2022/03/28 09:26:05;;;;;;;9.05;4.13;;;;;;;21.23;44.94;102265.13;5054903;28;20044;-71
2022/03/28 09:29:06;;;;;;;9.63;4.13;;;;;;;21.23;44.87;102273.09;5055810;28;20108;-72
2022/03/28 09:31:42;;;;;;;7.72;3.33;;;;;;;21.22;45.02;102269.59;5014125;28;20037;-70
2022/03/28 09:34:16;;;;;;;7.57;3.58;;;;;;;21.23;44.50;102262.47;5050514;28;20056;-74
2022/03/28 09:36:48;;;;;;;9.50;3.73;;;;;;;21.25;44.73;102266.69;5057934;28;20023;-74
2022/03/28 09:39:27;;;;;;;9.98;4.25;;;;;;;21.27;44.65;102264.78;5056386;28;20282;-73
2022/03/28 09:42:10;;;;;;;9.45;4.78;;;;;;;21.28;44.74;102253.22;5054385;28;20055;-70
2022/03/28 09:44:39;;;;;;;9.18;4.15;;;;;;;21.28;44.70;102247.06;5055586;28;20025;-71
2022/03/28 09:47:09;;;;;;;11.27;4.43;;;;;;;21.26;44.24;102247.19;5058733;28;20029;-65
2022/03/28 09:49:35;;;;;;;10.82;4.53;;;;;;;21.26;44.64;102252.47;5057900;28;20081;-66
2022/03/28 09:52:11;;;;;;;9.90;4.10;;;;;;;21.25;45.11;102247.28;5059918;28;20541;-68
2022/03/28 09:55:04;;;;;;;9.07;4.25;;;;;;;21.23;43.15;102234.16;5058186;28;20017;-69
2022/03/28 09:57:35;;;;;;;11.98;5.45;;;;;;;21.24;44.20;102240.28;5057662;28;20033;-80
2022/03/28 10:00:15;;;;;;;9.50;4.53;;;;;;;21.25;44.91;102239.34;5059751;28;20051;-80
2022/03/28 10:02:40;;;;;;;7.97;4.15;;;;;;;21.28;45.09;102231.16;5059935;28;20032;-79
2022/03/28 10:05:06;;;;;;;8.45;4.07;;;;;;;21.28;45.09;102231.16;5058667;28;20025;-83
2022/03/28 10:07:33;;;;;;;9.32;4.32;;;;;;;21.27;44.84;102229.47;5056549;28;20063;-70
2022/03/28 10:09:59;;;;;;;8.45;4.07;;;;;;;21.22;45.20;102226.31;5055593;28;20017;-70
2022/03/28 10:12:25;;;;;;;9.35;4.15;;;;;;;21.21;45.68;102225.47;5054574;28;20033;-66
2022/03/28 10:14:54;;;;;;;9.55;3.90;;;;;;;21.20;46.32;102224.63;5054942;28;20041;-66
2022/03/28 10:17:20;;;;;;;12.68;4.65;;;;;;;21.22;44.79;102229.81;5055293;28;20028;-69
2022/03/28 10:19:45;;;;;;;9.90;4.88;;;;;;;21.18;45.86;102229.19;5054096;28;20025;-68
2022/03/28 10:22:17;;;;;;;8.38;4.10;;;;;;;21.17;45.98;102219.56;5055316;28;20391;-72
2022/03/28 10:24:45;;;;;;;11.57;4.78;;;;;;;21.20;45.88;102219.31;5055185;28;20388;-75
2022/03/28 10:27:12;;;;;;;7.70;3.90;;;;;;;21.20;45.86;102214.03;5054965;28;20445;-68
2022/03/28 10:29:40;;;;;;;9.05;4.55;;;;;;;21.20;46.10;102208.72;5054821;28;20029;-68
2022/03/28 10:32:13;;;;;;;10.23;4.93;;;;;;;21.21;45.99;102206.91;5054882;28;20025;-68
2022/03/28 10:34:39;;;;;;;8.68;4.32;;;;;;;21.22;45.86;102199.78;5055036;28;20028;-74
2022/03/28 10:37:31;;;;;;;9.38;4.53;;;;;;;21.22;45.75;102194.50;5055739;28;20028;-67
2022/03/28 10:40:11;;;;;;;7.93;3.88;;;;;;;21.20;45.82;102195.47;5054772;28;20020;-67
2022/03/28 10:42:37;;;;;;;8.48;4.15;;;;;;;21.21;46.14;102185.69;5054026;28;20033;-68
2022/03/28 10:45:08;;;;;;;9.55;3.90;;;;;;;21.22;46.48;102178.59;5055126;28;20104;-65
2022/03/28 10:47:42;;;;;;;9.27;3.90;;;;;;;21.23;46.33;102185.59;5054218;28;20039;-72
2022/03/28 10:50:09;;;;;;;13.65;4.38;;;;;;;21.22;46.41;102176.81;5054555;28;20477;-68
2022/03/28 10:52:35;;;;;;;10.73;4.15;;;;;;;21.24;46.19;102181.97;5054262;28;20060;-78
2022/03/28 10:55:07;;;;;;;10.00;4.20;;;;;;;21.28;46.01;102178.97;5053216;28;20017;-69
2022/03/28 10:57:32;;;;;;;10.55;3.80;;;;;;;21.29;46.22;102167.41;5055802;28;20087;-75
2022/03/28 11:00:12;;;;;;;11.43;4.25;;;;;;;21.34;47.01;102172.38;5057987;28;20021;-72
2022/03/28 11:02:37;;;;;;;10.15;4.20;;;;;;;21.38;47.03;102174.69;5055434;28;20025;-75
2022/03/28 11:05:08;;;;;;;9.48;4.43;;;;;;;21.36;47.30;102166.00;5054350;28;20179;-72
2022/03/28 11:07:33;;;;;;;9.07;3.83;;;;;;;21.32;47.25;102171.66;5054337;28;20056;-73
2022/03/28 11:10:08;;;;;;;8.10;4.35;;;;;;;21.28;47.71;102168.38;5054426;28;20021;-75
2022/03/28 11:12:39;;;;;;;7.75;3.70;;;;;;;21.29;47.35;102178.03;5054298;28;20112;-72
2022/03/28 11:15:22;;;;;;;9.60;3.85;;;;;;;21.23;47.48;102156.44;5055257;28;20126;-77
2022/03/28 11:17:58;;;;;;;8.55;3.92;;;;;;;21.25;47.73;102162.44;5054839;28;20032;-76
2022/03/28 11:20:28;;;;;;;9.63;3.90;;;;;;;21.26;47.82;102154.38;5055871;28;20053;-72
2022/03/28 11:23:08;;;;;;;10.57;4.40;;;;;;;21.28;47.71;102154.28;5053218;28;20028;-70